createdAt,value
2022-12-15T00:00:54.409Z,1.94
2022-12-15T00:05:29.163Z,1.99
2022-12-15T00:10:04.034Z,1.64
2022-12-15T00:14:38.912Z,1.82
2022-12-15T00:19:13.559Z,2.06
2022-12-15T00:23:48.512Z,1.90
2022-12-15T00:28:23.481Z,1.55
2022-12-15T00:32:58.323Z,1.71
2022-12-15T00:37:33.082Z,2.06
2022-12-15T00:41:49.228Z,1.93
2022-12-15T00:46:24.216Z,1.90
2022-12-15T00:50:52.549Z,1.93
2022-12-15T00:55:27.408Z,2.17
2022-12-15T01:00:02.295Z,2.20
2022-12-15T01:04:37.148Z,2.14
2022-12-15T01:09:11.974Z,1.99
2022-12-15T01:13:49.765Z,2.01
2022-12-15T01:18:24.493Z,2.05
2022-12-15T01:22:41.305Z,2.03
2022-12-15T01:26:58.005Z,1.90
2022-12-15T01:31:14.693Z,2.21
2022-12-15T01:35:30.921Z,1.96
2022-12-15T01:40:06.046Z,1.90
2022-12-15T01:44:24.636Z,1.89
2022-12-15T01:48:40.844Z,1.77
2022-12-15T01:52:56.987Z,2.10
2022-12-15T01:57:18.801Z,2.13
2022-12-15T02:01:35.274Z,2.04
2022-12-15T02:05:52.691Z,2.10
2022-12-15T02:10:10.523Z,1.93
2022-12-15T02:14:45.156Z,2.14
2022-12-15T02:19:35.881Z,2.20
2022-12-15T02:24:04.682Z,2.07
2022-12-15T02:28:32.820Z,2.14
2022-12-15T02:32:59.218Z,2.08
2022-12-15T02:37:26.522Z,2.13
2022-12-15T02:41:45.028Z,2.22
2022-12-15T02:46:25.341Z,1.93
2022-12-15T02:50:51.867Z,2.20
2022-12-15T02:55:20.003Z,2.35
2022-12-15T02:59:43.837Z,1.83
2022-12-15T03:04:02.213Z,1.86
2022-12-15T03:08:18.465Z,1.88
2022-12-15T03:12:34.762Z,1.87
2022-12-15T03:16:51.287Z,1.81
2022-12-15T03:21:07.479Z,2.04
2022-12-15T03:25:23.707Z,2.02
2022-12-15T03:29:40.018Z,1.93
2022-12-15T03:33:56.182Z,2.32
2022-12-15T03:38:12.392Z,2.22
2022-12-15T03:42:47.613Z,2.19
2022-12-15T03:47:04.089Z,2.18
2022-12-15T03:51:21.022Z,2.13
2022-12-15T03:55:37.270Z,2.24
2022-12-15T03:59:53.512Z,2.29
2022-12-15T04:04:09.949Z,2.25
2022-12-15T04:08:26.986Z,2.12
2022-12-15T04:12:43.315Z,2.32
2022-12-15T04:16:59.893Z,2.25
2022-12-15T04:21:17.999Z,2.18
2022-12-15T04:25:53.094Z,2.42
2022-12-15T04:30:28.604Z,2.25
2022-12-15T04:35:03.364Z,2.24
2022-12-15T04:39:38.224Z,2.21
2022-12-15T04:44:13.386Z,2.31
2022-12-15T04:48:48.165Z,2.18
2022-12-15T04:53:34.898Z,2.24
2022-12-15T04:58:09.541Z,2.33
2022-12-15T05:02:44.482Z,2.32
2022-12-15T05:07:19.348Z,2.52
2022-12-15T05:11:54.360Z,2.35
2022-12-15T05:16:29.357Z,2.38
2022-12-15T05:21:04.172Z,2.48
2022-12-15T05:25:39.102Z,2.05
2022-12-15T05:30:14.077Z,2.22
2022-12-15T05:34:33.072Z,2.41
2022-12-15T05:38:51.331Z,2.62
2022-12-15T05:43:07.496Z,2.36
2022-12-15T05:47:23.660Z,2.53
2022-12-15T05:51:41.435Z,2.42
2022-12-15T05:56:05.164Z,2.40
2022-12-15T06:00:21.748Z,2.56
2022-12-15T06:04:38.071Z,2.51
2022-12-15T06:08:54.385Z,2.47
2022-12-15T06:13:10.663Z,2.67
2022-12-15T06:17:26.855Z,2.42
2022-12-15T06:21:43.084Z,2.56
2022-12-15T06:26:00.360Z,2.71
2022-12-15T06:30:16.717Z,2.35
2022-12-15T06:34:32.901Z,2.94
2022-12-15T06:38:49.886Z,2.45
2022-12-15T06:43:08.206Z,3.10
2022-12-15T06:47:24.342Z,2.92
2022-12-15T06:51:41.637Z,2.76
2022-12-15T06:56:06.093Z,2.78
2022-12-15T07:00:22.472Z,2.72
2022-12-15T07:04:38.678Z,2.86
2022-12-15T07:08:56.941Z,2.73
2022-12-15T07:13:14.166Z,2.80
2022-12-15T07:17:30.476Z,2.82
2022-12-15T07:21:46.716Z,2.99
2022-12-15T07:26:11.418Z,2.87
2022-12-15T07:30:29.654Z,2.87
2022-12-15T07:34:48.566Z,3.19
2022-12-15T07:39:05.404Z,2.95
2022-12-15T07:43:23.147Z,2.92
2022-12-15T07:47:39.497Z,3.13
2022-12-15T07:51:58.616Z,3.23
2022-12-15T07:56:15.624Z,3.38
2022-12-15T08:00:33.885Z,3.24
2022-12-15T08:04:50.115Z,3.28
2022-12-15T08:09:06.382Z,2.92
2022-12-15T08:14:00.292Z,3.35
2022-12-15T08:17:58.895Z,3.07
2022-12-15T08:22:17.827Z,3.34
2022-12-15T08:26:34.489Z,3.58
2022-12-15T08:30:50.757Z,3.64
2022-12-15T08:35:25.390Z,3.90
2022-12-15T08:39:46.471Z,3.97
2022-12-15T08:44:02.986Z,4.03
2022-12-15T08:48:19.281Z,4.01
2022-12-15T08:52:37.768Z,4.12
2022-12-15T08:56:54.003Z,4.02
2022-12-15T09:01:17.464Z,4.19
2022-12-15T09:05:39.594Z,4.17
2022-12-15T09:09:55.793Z,3.83
2022-12-15T09:14:11.964Z,3.63
2022-12-15T09:18:28.358Z,3.73
2022-12-15T09:22:44.842Z,3.85
2022-12-15T09:27:11.827Z,4.08
2022-12-15T09:31:30.947Z,3.97
2022-12-15T09:35:54.526Z,4.29
2022-12-15T09:40:15.073Z,4.58
2022-12-15T09:44:32.351Z,4.49
2022-12-15T09:48:52.020Z,4.60
2022-12-15T09:53:45.376Z,4.85
2022-12-15T09:57:58.973Z,4.88
2022-12-15T10:02:49.735Z,4.89
2022-12-15T10:07:39.880Z,5.02
2022-12-15T10:12:05.673Z,4.95
2022-12-15T10:16:22.036Z,5.32
2022-12-15T10:20:38.336Z,5.15
2022-12-15T10:25:14.029Z,5.08
2022-12-15T10:29:35.042Z,4.96
2022-12-15T10:33:58.096Z,5.38
2022-12-15T10:38:38.080Z,5.99
2022-12-15T10:42:54.387Z,6.90
2022-12-15T10:47:32.124Z,7.07
2022-12-15T10:51:55.522Z,7.82
2022-12-15T10:56:20.124Z,8.37
2022-12-15T11:00:36.723Z,8.04
2022-12-15T11:04:57.879Z,7.76
2022-12-15T11:09:43.828Z,7.68
2022-12-15T11:14:12.182Z,7.23
2022-12-15T11:18:46.454Z,7.15
2022-12-15T11:23:31.148Z,7.15
2022-12-15T11:27:49.536Z,6.64
2022-12-15T11:32:07.720Z,6.35
2022-12-15T11:36:53.599Z,5.96
2022-12-15T11:41:30.339Z,6.02
2022-12-15T11:46:00.555Z,5.91
2022-12-15T11:50:36.833Z,6.01
2022-12-15T11:55:25.783Z,6.14
2022-12-15T11:59:55.201Z,5.98
2022-12-15T12:04:56.115Z,6.08
2022-12-15T12:09:36.716Z,5.94
2022-12-15T12:14:11.987Z,5.91
2022-12-15T12:18:43.000Z,5.53
2022-12-15T12:23:05.094Z,5.75
2022-12-15T12:27:28.472Z,5.86
2022-12-15T12:32:12.287Z,5.46
2022-12-15T12:36:30.586Z,5.25
2022-12-15T12:41:04.507Z,5.45
2022-12-15T12:45:23.535Z,5.41
2022-12-15T12:49:45.277Z,5.34
2022-12-15T12:54:33.202Z,5.16
2022-12-15T12:58:49.552Z,4.93
2022-12-15T13:03:14.718Z,5.15
2022-12-15T13:07:34.965Z,4.93
2022-12-15T13:11:54.240Z,5.38
2022-12-15T13:16:27.673Z,4.94
2022-12-15T13:20:45.475Z,5.21
2022-12-15T13:25:36.266Z,5.16
2022-12-15T13:30:04.534Z,5.29
2022-12-15T13:34:29.303Z,5.21
2022-12-15T13:38:54.618Z,5.32
2022-12-15T13:43:32.398Z,5.29
2022-12-15T13:47:55.121Z,5.26
2022-12-15T13:52:14.571Z,5.21
2022-12-15T13:56:39.870Z,5.38
2022-12-15T14:00:59.108Z,5.15
2022-12-15T14:05:24.961Z,5.42
2022-12-15T14:09:42.644Z,5.08
2022-12-15T14:14:01.204Z,5.17
2022-12-15T14:18:32.965Z,5.18
2022-12-15T14:22:50.779Z,5.35
2022-12-15T14:27:07.132Z,4.98
2022-12-15T14:31:26.748Z,5.15
2022-12-15T14:35:55.531Z,5.26
2022-12-15T14:40:22.393Z,5.20
2022-12-15T14:44:49.746Z,5.14
2022-12-15T14:49:09.406Z,5.17
2022-12-15T14:53:28.135Z,5.10
2022-12-15T14:57:48.175Z,4.75
2022-12-15T15:02:22.042Z,4.67
2022-12-15T15:06:47.703Z,4.56
2022-12-15T15:11:53.771Z,4.67
2022-12-15T15:16:17.081Z,4.63
2022-12-15T15:20:38.061Z,4.28
2022-12-15T15:24:54.172Z,4.53
2022-12-15T15:29:39.526Z,4.21
2022-12-15T15:33:59.790Z,4.41
2022-12-15T15:38:37.726Z,4.74
2022-12-15T15:42:53.937Z,4.60
2022-12-15T15:47:25.109Z,3.97
2022-12-15T15:51:41.532Z,3.99
2022-12-15T15:55:58.313Z,4.27
2022-12-15T16:00:20.480Z,4.35
2022-12-15T16:04:37.544Z,4.32
2022-12-15T16:08:55.063Z,4.12
2022-12-15T16:13:11.905Z,4.22
2022-12-15T16:17:28.263Z,4.22
2022-12-15T16:21:44.844Z,4.18
2022-12-15T16:26:01.355Z,4.23
2022-12-15T16:30:20.605Z,3.97
2022-12-15T16:34:36.916Z,3.86
2022-12-15T16:38:53.148Z,4.22
2022-12-15T16:43:26.180Z,3.98
2022-12-15T16:47:43.924Z,3.94
2022-12-15T16:52:00.366Z,3.88
2022-12-15T16:56:16.767Z,4.00
2022-12-15T17:00:35.572Z,3.62
2022-12-15T17:04:56.685Z,3.79
2022-12-15T17:09:21.540Z,3.89
2022-12-15T17:13:45.724Z,3.83
2022-12-15T17:18:02.973Z,3.81
2022-12-15T17:22:19.662Z,3.94
2022-12-15T17:26:37.472Z,3.97
2022-12-15T17:30:53.849Z,3.65
2022-12-15T17:35:11.841Z,3.98
2022-12-15T17:39:29.118Z,3.95
2022-12-15T17:43:49.017Z,3.70
2022-12-15T17:48:20.605Z,3.28
2022-12-15T17:52:37.195Z,3.50
2022-12-15T17:56:53.787Z,3.38
2022-12-15T18:01:14.400Z,3.84
2022-12-15T18:05:36.393Z,3.92
2022-12-15T18:09:54.242Z,3.75
2022-12-15T18:14:22.602Z,3.86
2022-12-15T18:18:40.749Z,3.63
2022-12-15T18:22:57.216Z,3.26
2022-12-15T18:27:21.753Z,3.74
2022-12-15T18:31:38.082Z,3.62
2022-12-15T18:35:54.379Z,3.80
2022-12-15T18:40:17.626Z,3.89
2022-12-15T18:44:33.922Z,3.86
2022-12-15T18:48:50.207Z,3.48
2022-12-15T18:53:06.808Z,3.47
2022-12-15T18:57:38.277Z,3.79
2022-12-15T19:01:54.793Z,3.85
2022-12-15T19:06:40.606Z,3.67
2022-12-15T19:11:18.393Z,3.95
2022-12-15T19:15:34.704Z,3.78
2022-12-15T19:20:09.485Z,3.89
2022-12-15T19:24:51.512Z,3.83
2022-12-15T19:29:22.234Z,3.97
2022-12-15T19:33:38.584Z,3.71
2022-12-15T19:37:57.908Z,3.78
2022-12-15T19:42:29.814Z,3.54
2022-12-15T19:46:46.225Z,3.59
2022-12-15T19:51:04.554Z,3.56
2022-12-15T19:55:26.046Z,3.38
2022-12-15T19:59:42.565Z,3.36
2022-12-15T20:03:58.747Z,3.57
2022-12-15T20:08:42.809Z,3.50
2022-12-15T20:12:59.242Z,3.71
2022-12-15T20:17:15.908Z,3.73
2022-12-15T20:21:35.250Z,3.46
2022-12-15T20:25:52.159Z,3.69
2022-12-15T20:30:16.483Z,3.50
2022-12-15T20:34:32.801Z,3.28
2022-12-15T20:38:49.097Z,3.57
2022-12-15T20:43:12.241Z,3.71
2022-12-15T20:47:28.484Z,3.64
2022-12-15T20:51:45.278Z,3.19
2022-12-15T20:56:01.848Z,3.45
2022-12-15T21:00:18.688Z,3.34
2022-12-15T21:04:35.371Z,3.41
2022-12-15T21:08:52.389Z,3.29
2022-12-15T21:13:18.326Z,3.63
2022-12-15T21:17:37.444Z,3.53
2022-12-15T21:21:57.830Z,3.29
2022-12-15T21:26:16.190Z,3.50
2022-12-15T21:30:32.492Z,3.63
2022-12-15T21:34:50.134Z,3.45
2022-12-15T21:39:11.839Z,3.66
2022-12-15T21:43:30.873Z,3.43
2022-12-15T21:48:06.770Z,3.66
2022-12-15T21:52:24.478Z,3.85
2022-12-15T21:56:40.695Z,3.62
2022-12-15T22:00:57.099Z,3.89
2022-12-15T22:05:20.844Z,3.86
2022-12-15T22:09:37.111Z,3.76
2022-12-15T22:13:55.315Z,4.01
2022-12-15T22:18:19.655Z,3.97
2022-12-15T22:22:35.845Z,4.09
2022-12-15T22:26:52.142Z,4.02
2022-12-15T22:31:11.077Z,3.78
2022-12-15T22:35:27.837Z,3.89
2022-12-15T22:39:43.996Z,3.82
2022-12-15T22:44:00.232Z,3.84
2022-12-15T22:48:16.885Z,3.92
2022-12-15T22:52:33.202Z,3.78
2022-12-15T22:57:08.814Z,3.70
2022-12-15T23:01:27.127Z,3.78
2022-12-15T23:05:43.400Z,3.84
2022-12-15T23:10:17.872Z,3.87
2022-12-15T23:14:52.939Z,3.97
2022-12-15T23:19:09.744Z,3.48
2022-12-15T23:23:28.138Z,3.48
2022-12-15T23:27:45.698Z,3.69
2022-12-15T23:32:02.743Z,3.66
2022-12-15T23:36:19.157Z,3.61
2022-12-15T23:40:35.449Z,3.57
2022-12-15T23:44:51.819Z,3.37
2022-12-15T23:49:10.698Z,3.54
2022-12-15T23:53:26.865Z,3.53
2022-12-15T23:57:43.226Z,3.82
